sensor_id;sensor_type;location;lat;lon;timestamp;temperature;humidity
78184;DHT22;67442;44.570;18.610;2023-03-23T00:01:33;22.60;61.30
78184;DHT22;67442;44.570;18.610;2023-03-23T00:04:03;22.60;61.30
78184;DHT22;67442;44.570;18.610;2023-03-23T00:06:30;22.60;61.30
78184;DHT22;67442;44.570;18.610;2023-03-23T00:08:59;22.60;61.40
78184;DHT22;67442;44.570;18.610;2023-03-23T00:11:30;22.60;61.40
78184;DHT22;67442;44.570;18.610;2023-03-23T00:14:01;22.60;61.40
78184;DHT22;67442;44.570;18.610;2023-03-23T00:16:31;22.60;61.50
78184;DHT22;67442;44.570;18.610;2023-03-23T00:19:06;22.60;61.50
78184;DHT22;67442;44.570;18.610;2023-03-23T00:21:36;22.60;61.50
78184;DHT22;67442;44.570;18.610;2023-03-23T00:24:06;22.60;61.60
78184;DHT22;67442;44.570;18.610;2023-03-23T00:26:34;22.60;61.60
78184;DHT22;67442;44.570;18.610;2023-03-23T00:29:03;22.60;62.50
78184;DHT22;67442;44.570;18.610;2023-03-23T00:31:30;22.60;61.60
78184;DHT22;67442;44.570;18.610;2023-03-23T00:33:59;22.60;61.70
78184;DHT22;67442;44.570;18.610;2023-03-23T00:36:33;22.60;61.60
78184;DHT22;67442;44.570;18.610;2023-03-23T00:39:11;22.60;61.60
78184;DHT22;67442;44.570;18.610;2023-03-23T00:41:38;22.60;61.60
78184;DHT22;67442;44.570;18.610;2023-03-23T00:44:10;22.60;61.70
78184;DHT22;67442;44.570;18.610;2023-03-23T00:46:44;22.60;61.70
78184;DHT22;67442;44.570;18.610;2023-03-23T00:49:12;22.60;61.70
78184;DHT22;67442;44.570;18.610;2023-03-23T00:51:41;22.60;61.70
78184;DHT22;67442;44.570;18.610;2023-03-23T00:54:08;22.60;61.70
78184;DHT22;67442;44.570;18.610;2023-03-23T00:56:36;22.60;61.70
78184;DHT22;67442;44.570;18.610;2023-03-23T00:59:05;22.60;61.80
78184;DHT22;67442;44.570;18.610;2023-03-23T01:01:32;22.60;61.80
78184;DHT22;67442;44.570;18.610;2023-03-23T01:04:00;22.60;61.80
78184;DHT22;67442;44.570;18.610;2023-03-23T01:06:35;22.60;61.80
78184;DHT22;67442;44.570;18.610;2023-03-23T01:09:07;22.60;62.60
78184;DHT22;67442;44.570;18.610;2023-03-23T01:11:34;22.60;61.90
78184;DHT22;67442;44.570;18.610;2023-03-23T01:14:02;22.60;61.90
78184;DHT22;67442;44.570;18.610;2023-03-23T01:16:29;22.60;62.00
78184;DHT22;67442;44.570;18.610;2023-03-23T01:18:56;22.60;62.10
78184;DHT22;67442;44.570;18.610;2023-03-23T01:21:24;22.60;62.10
78184;DHT22;67442;44.570;18.610;2023-03-23T01:23:51;22.60;62.20
78184;DHT22;67442;44.570;18.610;2023-03-23T01:26:23;22.60;62.10
78184;DHT22;67442;44.570;18.610;2023-03-23T01:28:51;22.60;62.10
78184;DHT22;67442;44.570;18.610;2023-03-23T01:31:24;22.60;62.10
78184;DHT22;67442;44.570;18.610;2023-03-23T01:33:53;22.60;62.00
78184;DHT22;67442;44.570;18.610;2023-03-23T01:36:27;22.60;62.00
78184;DHT22;67442;44.570;18.610;2023-03-23T01:38:55;22.60;62.00
78184;DHT22;67442;44.570;18.610;2023-03-23T01:41:26;22.60;62.00
78184;DHT22;67442;44.570;18.610;2023-03-23T01:44:04;22.60;62.00
78184;DHT22;67442;44.570;18.610;2023-03-23T01:46:35;22.60;62.00
78184;DHT22;67442;44.570;18.610;2023-03-23T01:49:19;22.60;62.00
78184;DHT22;67442;44.570;18.610;2023-03-23T01:52:01;22.60;62.10
78184;DHT22;67442;44.570;18.610;2023-03-23T01:54:29;22.60;62.10
78184;DHT22;67442;44.570;18.610;2023-03-23T01:57:03;22.60;62.10
78184;DHT22;67442;44.570;18.610;2023-03-23T01:59:34;22.60;62.10
78184;DHT22;67442;44.570;18.610;2023-03-23T02:02:01;22.60;62.10
78184;DHT22;67442;44.570;18.610;2023-03-23T02:04:29;22.60;62.10
78184;DHT22;67442;44.570;18.610;2023-03-23T02:07:01;22.60;62.10
78184;DHT22;67442;44.570;18.610;2023-03-23T02:09:28;22.60;62.20
78184;DHT22;67442;44.570;18.610;2023-03-23T02:11:57;22.60;62.20
78184;DHT22;67442;44.570;18.610;2023-03-23T02:14:25;22.60;62.20
78184;DHT22;67442;44.570;18.610;2023-03-23T02:17:09;22.60;62.30
78184;DHT22;67442;44.570;18.610;2023-03-23T02:22:43;22.60;62.20
78184;DHT22;67442;44.570;18.610;2023-03-23T02:36:04;22.60;62.10
78184;DHT22;67442;44.570;18.610;2023-03-23T02:38:38;22.60;62.10
78184;DHT22;67442;44.570;18.610;2023-03-23T02:41:11;22.60;62.10
78184;DHT22;67442;44.570;18.610;2023-03-23T02:43:44;22.60;62.10
78184;DHT22;67442;44.570;18.610;2023-03-23T02:46:13;22.60;62.20
78184;DHT22;67442;44.570;18.610;2023-03-23T02:48:45;22.60;62.10
78184;DHT22;67442;44.570;18.610;2023-03-23T02:51:15;22.50;62.10
78184;DHT22;67442;44.570;18.610;2023-03-23T02:53:47;22.60;62.20
78184;DHT22;67442;44.570;18.610;2023-03-23T02:56:20;22.60;62.20
78184;DHT22;67442;44.570;18.610;2023-03-23T02:58:51;22.60;62.20
78184;DHT22;67442;44.570;18.610;2023-03-23T03:04:06;22.60;62.30
78184;DHT22;67442;44.570;18.610;2023-03-23T03:10:13;22.60;62.20
78184;DHT22;67442;44.570;18.610;2023-03-23T03:13:01;22.60;62.20
78184;DHT22;67442;44.570;18.610;2023-03-23T03:18:07;22.60;62.20
78184;DHT22;67442;44.570;18.610;2023-03-23T03:20:45;22.50;62.10
78184;DHT22;67442;44.570;18.610;2023-03-23T03:23:14;22.60;62.20
78184;DHT22;67442;44.570;18.610;2023-03-23T03:25:46;22.50;62.10
78184;DHT22;67442;44.570;18.610;2023-03-23T03:28:19;22.60;62.20
78184;DHT22;67442;44.570;18.610;2023-03-23T03:30:54;22.60;62.20
78184;DHT22;67442;44.570;18.610;2023-03-23T03:33:23;22.60;62.20
78184;DHT22;67442;44.570;18.610;2023-03-23T03:35:53;22.60;62.20
78184;DHT22;67442;44.570;18.610;2023-03-23T03:38:21;22.60;62.20
78184;DHT22;67442;44.570;18.610;2023-03-23T03:40:53;22.60;62.10
78184;DHT22;67442;44.570;18.610;2023-03-23T03:43:20;22.60;62.20
78184;DHT22;67442;44.570;18.610;2023-03-23T03:45:48;22.60;62.20
78184;DHT22;67442;44.570;18.610;2023-03-23T03:48:19;22.60;62.20
78184;DHT22;67442;44.570;18.610;2023-03-23T03:50:49;22.60;62.20
78184;DHT22;67442;44.570;18.610;2023-03-23T03:53:21;22.60;62.20
78184;DHT22;67442;44.570;18.610;2023-03-23T03:55:48;22.60;62.20
78184;DHT22;67442;44.570;18.610;2023-03-23T03:58:16;22.60;62.20
78184;DHT22;67442;44.570;18.610;2023-03-23T04:00:48;22.60;62.10
78184;DHT22;67442;44.570;18.610;2023-03-23T04:03:16;22.60;62.10
78184;DHT22;67442;44.570;18.610;2023-03-23T04:05:43;22.60;62.10
78184;DHT22;67442;44.570;18.610;2023-03-23T04:08:11;22.60;62.10
78184;DHT22;67442;44.570;18.610;2023-03-23T04:10:42;22.60;62.10
78184;DHT22;67442;44.570;18.610;2023-03-23T04:13:14;22.60;62.10
78184;DHT22;67442;44.570;18.610;2023-03-23T04:15:46;22.60;62.10
78184;DHT22;67442;44.570;18.610;2023-03-23T04:18:13;22.60;62.20
78184;DHT22;67442;44.570;18.610;2023-03-23T04:20:45;22.60;62.20
78184;DHT22;67442;44.570;18.610;2023-03-23T04:23:19;22.60;62.20
78184;DHT22;67442;44.570;18.610;2023-03-23T04:25:48;22.60;62.20
78184;DHT22;67442;44.570;18.610;2023-03-23T04:28:18;22.60;62.20
78184;DHT22;67442;44.570;18.610;2023-03-23T04:30:51;22.60;62.20
78184;DHT22;67442;44.570;18.610;2023-03-23T04:33:25;22.60;62.30
78184;DHT22;67442;44.570;18.610;2023-03-23T04:35:59;22.60;62.30
78184;DHT22;67442;44.570;18.610;2023-03-23T04:38:31;22.50;62.20
78184;DHT22;67442;44.570;18.610;2023-03-23T04:41:00;22.60;62.30
78184;DHT22;67442;44.570;18.610;2023-03-23T04:43:28;22.60;62.30
78184;DHT22;67442;44.570;18.610;2023-03-23T04:45:56;22.60;62.30
78184;DHT22;67442;44.570;18.610;2023-03-23T04:48:25;22.60;62.40
78184;DHT22;67442;44.570;18.610;2023-03-23T04:50:53;22.60;62.30
78184;DHT22;67442;44.570;18.610;2023-03-23T04:53:20;22.60;62.30
78184;DHT22;67442;44.570;18.610;2023-03-23T04:55:51;22.60;62.30
78184;DHT22;67442;44.570;18.610;2023-03-23T04:58:18;22.60;62.40
78184;DHT22;67442;44.570;18.610;2023-03-23T05:00:49;22.60;62.40
78184;DHT22;67442;44.570;18.610;2023-03-23T05:03:20;22.60;62.30
78184;DHT22;67442;44.570;18.610;2023-03-23T05:05:47;22.60;63.20
78184;DHT22;67442;44.570;18.610;2023-03-23T05:08:24;22.60;62.40
78184;DHT22;67442;44.570;18.610;2023-03-23T05:10:54;22.60;62.40
78184;DHT22;67442;44.570;18.610;2023-03-23T05:13:21;22.60;62.50
78184;DHT22;67442;44.570;18.610;2023-03-23T05:15:48;22.60;62.40
78184;DHT22;67442;44.570;18.610;2023-03-23T05:18:16;22.60;62.50
78184;DHT22;67442;44.570;18.610;2023-03-23T05:20:43;22.60;62.50
78184;DHT22;67442;44.570;18.610;2023-03-23T05:23:13;22.60;62.50
78184;DHT22;67442;44.570;18.610;2023-03-23T05:25:40;22.60;62.50
78184;DHT22;67442;44.570;18.610;2023-03-23T05:28:10;22.60;62.50
78184;DHT22;67442;44.570;18.610;2023-03-23T05:30:38;22.60;62.40
78184;DHT22;67442;44.570;18.610;2023-03-23T05:33:06;22.60;62.50
78184;DHT22;67442;44.570;18.610;2023-03-23T05:35:34;22.60;62.40
78184;DHT22;67442;44.570;18.610;2023-03-23T05:38:00;22.60;62.50
78184;DHT22;67442;44.570;18.610;2023-03-23T05:40:28;22.60;62.40
78184;DHT22;67442;44.570;18.610;2023-03-23T05:42:56;22.60;62.50
78184;DHT22;67442;44.570;18.610;2023-03-23T05:45:25;22.60;62.50
78184;DHT22;67442;44.570;18.610;2023-03-23T05:47:52;22.60;62.50
78184;DHT22;67442;44.570;18.610;2023-03-23T05:50:23;22.50;62.50
78184;DHT22;67442;44.570;18.610;2023-03-23T05:52:51;22.60;62.60
78184;DHT22;67442;44.570;18.610;2023-03-23T05:55:18;22.60;62.80
78184;DHT22;67442;44.570;18.610;2023-03-23T05:57:46;22.50;62.70
78184;DHT22;67442;44.570;18.610;2023-03-23T06:00:13;22.50;62.70
78184;DHT22;67442;44.570;18.610;2023-03-23T06:02:42;22.50;62.70
78184;DHT22;67442;44.570;18.610;2023-03-23T06:05:10;22.50;62.80
78184;DHT22;67442;44.570;18.610;2023-03-23T06:07:38;22.50;62.80
78184;DHT22;67442;44.570;18.610;2023-03-23T06:10:07;22.50;62.80
78184;DHT22;67442;44.570;18.610;2023-03-23T06:12:35;22.50;62.70
78184;DHT22;67442;44.570;18.610;2023-03-23T06:15:04;22.50;62.70
78184;DHT22;67442;44.570;18.610;2023-03-23T06:17:34;22.50;62.60
78184;DHT22;67442;44.570;18.610;2023-03-23T06:20:02;22.50;62.50
78184;DHT22;67442;44.570;18.610;2023-03-23T06:22:30;22.50;62.40
78184;DHT22;67442;44.570;18.610;2023-03-23T06:25:02;22.50;62.30
78184;DHT22;67442;44.570;18.610;2023-03-23T06:27:29;22.50;62.20
78184;DHT22;67442;44.570;18.610;2023-03-23T06:30:01;22.50;62.20
78184;DHT22;67442;44.570;18.610;2023-03-23T06:32:30;22.50;62.10
78184;DHT22;67442;44.570;18.610;2023-03-23T06:34:57;22.50;62.10
78184;DHT22;67442;44.570;18.610;2023-03-23T06:37:24;22.40;61.90
78184;DHT22;67442;44.570;18.610;2023-03-23T06:39:54;22.40;61.80
78184;DHT22;67442;44.570;18.610;2023-03-23T06:42:25;22.40;61.80
78184;DHT22;67442;44.570;18.610;2023-03-23T06:44:56;22.40;61.70
78184;DHT22;67442;44.570;18.610;2023-03-23T06:47:24;22.40;61.60
78184;DHT22;67442;44.570;18.610;2023-03-23T06:49:52;22.40;61.50
78184;DHT22;67442;44.570;18.610;2023-03-23T06:52:24;22.40;61.50
78184;DHT22;67442;44.570;18.610;2023-03-23T06:54:55;22.40;62.10
78184;DHT22;67442;44.570;18.610;2023-03-23T06:57:23;22.40;61.30
78184;DHT22;67442;44.570;18.610;2023-03-23T06:59:50;22.40;61.20
78184;DHT22;67442;44.570;18.610;2023-03-23T07:02:21;22.40;61.20
78184;DHT22;67442;44.570;18.610;2023-03-23T07:04:50;22.40;61.10
78184;DHT22;67442;44.570;18.610;2023-03-23T07:07:17;22.40;61.10
78184;DHT22;67442;44.570;18.610;2023-03-23T07:09:45;22.40;61.10
78184;DHT22;67442;44.570;18.610;2023-03-23T07:12:12;22.40;61.00
78184;DHT22;67442;44.570;18.610;2023-03-23T07:14:40;22.40;61.10
78184;DHT22;67442;44.570;18.610;2023-03-23T07:17:07;22.40;60.90
78184;DHT22;67442;44.570;18.610;2023-03-23T07:19:34;22.40;60.90
78184;DHT22;67442;44.570;18.610;2023-03-23T07:22:04;22.30;60.80
78184;DHT22;67442;44.570;18.610;2023-03-23T07:24:36;22.40;60.90
78184;DHT22;67442;44.570;18.610;2023-03-23T07:27:02;22.40;60.80
78184;DHT22;67442;44.570;18.610;2023-03-23T07:29:30;22.40;60.80
78184;DHT22;67442;44.570;18.610;2023-03-23T07:32:01;22.30;60.70
78184;DHT22;67442;44.570;18.610;2023-03-23T07:34:29;22.40;60.70
78184;DHT22;67442;44.570;18.610;2023-03-23T07:36:57;22.30;60.60
78184;DHT22;67442;44.570;18.610;2023-03-23T07:39:27;22.30;60.50
78184;DHT22;67442;44.570;18.610;2023-03-23T07:41:59;22.30;60.50
78184;DHT22;67442;44.570;18.610;2023-03-23T07:44:30;22.30;60.50
78184;DHT22;67442;44.570;18.610;2023-03-23T07:46:57;22.30;60.40
78184;DHT22;67442;44.570;18.610;2023-03-23T07:49:24;22.30;60.40
78184;DHT22;67442;44.570;18.610;2023-03-23T07:51:53;22.30;60.40
78184;DHT22;67442;44.570;18.610;2023-03-23T07:54:20;22.40;60.40
78184;DHT22;67442;44.570;18.610;2023-03-23T07:56:51;22.30;60.30
78184;DHT22;67442;44.570;18.610;2023-03-23T07:59:18;22.30;60.30
78184;DHT22;67442;44.570;18.610;2023-03-23T08:01:46;22.30;60.20
78184;DHT22;67442;44.570;18.610;2023-03-23T08:04:13;22.30;60.20
78184;DHT22;67442;44.570;18.610;2023-03-23T08:06:41;22.30;60.10
78184;DHT22;67442;44.570;18.610;2023-03-23T08:09:12;22.30;60.10
78184;DHT22;67442;44.570;18.610;2023-03-23T08:11:40;22.30;60.00
78184;DHT22;67442;44.570;18.610;2023-03-23T08:14:07;22.30;60.00
78184;DHT22;67442;44.570;18.610;2023-03-23T08:16:34;22.30;59.90
78184;DHT22;67442;44.570;18.610;2023-03-23T08:19:02;22.30;59.90
78184;DHT22;67442;44.570;18.610;2023-03-23T08:21:31;22.30;59.90
78184;DHT22;67442;44.570;18.610;2023-03-23T08:23:59;22.30;59.90
78184;DHT22;67442;44.570;18.610;2023-03-23T08:26:27;22.30;59.90
78184;DHT22;67442;44.570;18.610;2023-03-23T08:28:54;22.30;59.80
78184;DHT22;67442;44.570;18.610;2023-03-23T08:31:20;22.30;59.80
78184;DHT22;67442;44.570;18.610;2023-03-23T08:33:47;22.30;59.80
78184;DHT22;67442;44.570;18.610;2023-03-23T08:36:14;22.30;59.80
78184;DHT22;67442;44.570;18.610;2023-03-23T08:38:41;22.30;59.80
78184;DHT22;67442;44.570;18.610;2023-03-23T08:41:09;22.30;59.80
78184;DHT22;67442;44.570;18.610;2023-03-23T08:43:36;22.30;59.70
78184;DHT22;67442;44.570;18.610;2023-03-23T08:46:05;22.30;59.70
78184;DHT22;67442;44.570;18.610;2023-03-23T08:48:36;22.30;59.70
78184;DHT22;67442;44.570;18.610;2023-03-23T08:51:04;22.30;59.70
78184;DHT22;67442;44.570;18.610;2023-03-23T08:53:33;22.30;59.70
78184;DHT22;67442;44.570;18.610;2023-03-23T08:56:07;22.30;59.70
78184;DHT22;67442;44.570;18.610;2023-03-23T08:58:53;22.30;59.70
78184;DHT22;67442;44.570;18.610;2023-03-23T09:01:20;22.30;59.60
78184;DHT22;67442;44.570;18.610;2023-03-23T09:03:48;22.30;59.60
78184;DHT22;67442;44.570;18.610;2023-03-23T09:06:15;22.30;59.60
78184;DHT22;67442;44.570;18.610;2023-03-23T09:08:42;22.30;59.80
78184;DHT22;67442;44.570;18.610;2023-03-23T09:11:09;22.30;59.60
78184;DHT22;67442;44.570;18.610;2023-03-23T09:13:37;22.30;59.60
78184;DHT22;67442;44.570;18.610;2023-03-23T09:16:08;22.30;59.60
78184;DHT22;67442;44.570;18.610;2023-03-23T09:18:35;22.30;59.50
78184;DHT22;67442;44.570;18.610;2023-03-23T09:21:02;22.30;59.50
78184;DHT22;67442;44.570;18.610;2023-03-23T09:23:30;22.30;59.50
78184;DHT22;67442;44.570;18.610;2023-03-23T09:25:57;22.30;59.50
78184;DHT22;67442;44.570;18.610;2023-03-23T09:28:29;22.30;59.50
78184;DHT22;67442;44.570;18.610;2023-03-23T09:31:01;22.30;59.50
78184;DHT22;67442;44.570;18.610;2023-03-23T09:33:28;22.30;59.50
78184;DHT22;67442;44.570;18.610;2023-03-23T09:36:02;22.30;59.50
78184;DHT22;67442;44.570;18.610;2023-03-23T09:38:29;22.30;59.40
78184;DHT22;67442;44.570;18.610;2023-03-23T09:50:04;22.30;59.30
78184;DHT22;67442;44.570;18.610;2023-03-23T09:52:44;22.30;59.40
78184;DHT22;67442;44.570;18.610;2023-03-23T09:55:15;22.30;59.40
78184;DHT22;67442;44.570;18.610;2023-03-23T09:57:52;22.30;59.30
78184;DHT22;67442;44.570;18.610;2023-03-23T10:00:51;22.30;59.30
78184;DHT22;67442;44.570;18.610;2023-03-23T10:03:26;22.30;59.30
78184;DHT22;67442;44.570;18.610;2023-03-23T10:05:54;22.30;59.30
78184;DHT22;67442;44.570;18.610;2023-03-23T10:08:31;22.30;59.30
78184;DHT22;67442;44.570;18.610;2023-03-23T10:19:52;22.30;59.30
78184;DHT22;67442;44.570;18.610;2023-03-23T10:22:30;22.30;59.30
78184;DHT22;67442;44.570;18.610;2023-03-23T10:25:16;22.30;59.30
78184;DHT22;67442;44.570;18.610;2023-03-23T10:30:24;22.30;59.20
78184;DHT22;67442;44.570;18.610;2023-03-23T10:32:58;22.30;59.30
78184;DHT22;67442;44.570;18.610;2023-03-23T10:35:57;22.30;59.30
78184;DHT22;67442;44.570;18.610;2023-03-23T10:38:47;22.30;59.20
78184;DHT22;67442;44.570;18.610;2023-03-23T10:41:19;22.20;59.20
78184;DHT22;67442;44.570;18.610;2023-03-23T10:43:47;22.30;59.20
78184;DHT22;67442;44.570;18.610;2023-03-23T10:46:27;22.20;59.10
78184;DHT22;67442;44.570;18.610;2023-03-23T10:48:58;22.30;59.20
78184;DHT22;67442;44.570;18.610;2023-03-23T10:51:36;22.30;59.20
78184;DHT22;67442;44.570;18.610;2023-03-23T10:54:05;22.30;59.20
78184;DHT22;67442;44.570;18.610;2023-03-23T10:56:41;22.30;59.10
78184;DHT22;67442;44.570;18.610;2023-03-23T10:59:13;22.20;59.10
78184;DHT22;67442;44.570;18.610;2023-03-23T11:01:50;22.30;59.10
78184;DHT22;67442;44.570;18.610;2023-03-23T11:04:19;22.20;59.00
78184;DHT22;67442;44.570;18.610;2023-03-23T11:06:53;22.20;59.00
78184;DHT22;67442;44.570;18.610;2023-03-23T11:09:32;22.30;59.10
78184;DHT22;67442;44.570;18.610;2023-03-23T11:12:03;22.20;59.00
78184;DHT22;67442;44.570;18.610;2023-03-23T11:14:34;22.20;59.00
78184;DHT22;67442;44.570;18.610;2023-03-23T11:17:03;22.20;59.00
78184;DHT22;67442;44.570;18.610;2023-03-23T11:19:33;22.30;59.00
78184;DHT22;67442;44.570;18.610;2023-03-23T11:24:40;22.20;59.70
78184;DHT22;67442;44.570;18.610;2023-03-23T11:27:07;22.20;59.00
78184;DHT22;67442;44.570;18.610;2023-03-23T11:29:56;22.20;59.00
78184;DHT22;67442;44.570;18.610;2023-03-23T11:32:28;22.20;59.00
78184;DHT22;67442;44.570;18.610;2023-03-23T11:35:00;22.20;59.00
78184;DHT22;67442;44.570;18.610;2023-03-23T11:37:42;22.20;59.00
78184;DHT22;67442;44.570;18.610;2023-03-23T11:42:47;22.20;59.00
78184;DHT22;67442;44.570;18.610;2023-03-23T11:45:33;22.20;59.00
78184;DHT22;67442;44.570;18.610;2023-03-23T11:50:59;22.20;59.00
78184;DHT22;67442;44.570;18.610;2023-03-23T11:53:37;22.20;59.00
78184;DHT22;67442;44.570;18.610;2023-03-23T11:56:36;22.20;59.60
78184;DHT22;67442;44.570;18.610;2023-03-23T11:59:10;22.20;59.00
78184;DHT22;67442;44.570;18.610;2023-03-23T12:01:58;22.20;59.00
78184;DHT22;67442;44.570;18.610;2023-03-23T12:21:24;22.20;58.90
78184;DHT22;67442;44.570;18.610;2023-03-23T12:27:03;22.20;58.90
78184;DHT22;67442;44.570;18.610;2023-03-23T12:29:57;22.20;59.00
78184;DHT22;67442;44.570;18.610;2023-03-23T12:35:49;22.20;58.90
78184;DHT22;67442;44.570;18.610;2023-03-23T12:38:44;22.20;58.90
78184;DHT22;67442;44.570;18.610;2023-03-23T12:41:27;22.20;58.90
78184;DHT22;67442;44.570;18.610;2023-03-23T12:44:02;22.20;59.00
78184;DHT22;67442;44.570;18.610;2023-03-23T12:47:05;22.20;59.00
78184;DHT22;67442;44.570;18.610;2023-03-23T12:55:36;22.20;58.90
78184;DHT22;67442;44.570;18.610;2023-03-23T12:58:21;22.20;58.90
78184;DHT22;67442;44.570;18.610;2023-03-23T13:01:05;22.20;58.90
78184;DHT22;67442;44.570;18.610;2023-03-23T13:03:46;22.20;58.90
78184;DHT22;67442;44.570;18.610;2023-03-23T13:06:31;22.20;59.60
78184;DHT22;67442;44.570;18.610;2023-03-23T13:09:11;22.20;59.00
78184;DHT22;67442;44.570;18.610;2023-03-23T13:11:40;22.20;58.90
78184;DHT22;67442;44.570;18.610;2023-03-23T13:17:05;22.20;59.00
78184;DHT22;67442;44.570;18.610;2023-03-23T13:22:52;22.20;58.90
78184;DHT22;67442;44.570;18.610;2023-03-23T13:25:39;22.20;58.90
78184;DHT22;67442;44.570;18.610;2023-03-23T13:28:20;22.20;58.90
78184;DHT22;67442;44.570;18.610;2023-03-23T13:31:13;22.20;59.00
78184;DHT22;67442;44.570;18.610;2023-03-23T13:33:46;22.20;58.90
78184;DHT22;67442;44.570;18.610;2023-03-23T13:36:25;22.20;58.90
78184;DHT22;67442;44.570;18.610;2023-03-23T13:38:58;22.20;58.90
78184;DHT22;67442;44.570;18.610;2023-03-23T13:41:26;22.20;58.90
78184;DHT22;67442;44.570;18.610;2023-03-23T13:44:05;22.20;58.90
78184;DHT22;67442;44.570;18.610;2023-03-23T13:46:55;22.20;58.90
78184;DHT22;67442;44.570;18.610;2023-03-23T13:49:26;22.20;58.90
78184;DHT22;67442;44.570;18.610;2023-03-23T13:52:22;22.20;58.90
78184;DHT22;67442;44.570;18.610;2023-03-23T13:54:49;22.20;58.90
78184;DHT22;67442;44.570;18.610;2023-03-23T13:57:35;22.20;58.90
78184;DHT22;67442;44.570;18.610;2023-03-23T14:00:24;22.20;58.90
78184;DHT22;67442;44.570;18.610;2023-03-23T14:02:52;22.20;58.90
78184;DHT22;67442;44.570;18.610;2023-03-23T14:05:34;22.20;58.90
78184;DHT22;67442;44.570;18.610;2023-03-23T14:08:24;22.20;58.80
78184;DHT22;67442;44.570;18.610;2023-03-23T14:10:57;22.20;58.90
78184;DHT22;67442;44.570;18.610;2023-03-23T14:13:50;22.20;58.90
78184;DHT22;67442;44.570;18.610;2023-03-23T14:19:00;22.20;58.90
78184;DHT22;67442;44.570;18.610;2023-03-23T14:21:42;22.20;58.90
78184;DHT22;67442;44.570;18.610;2023-03-23T14:26:50;22.20;58.80
78184;DHT22;67442;44.570;18.610;2023-03-23T14:29:19;22.20;58.90
78184;DHT22;67442;44.570;18.610;2023-03-23T14:31:51;22.20;58.90
78184;DHT22;67442;44.570;18.610;2023-03-23T14:34:20;22.20;58.90
78184;DHT22;67442;44.570;18.610;2023-03-23T14:36:48;22.20;58.90
78184;DHT22;67442;44.570;18.610;2023-03-23T14:39:27;22.20;58.90
78184;DHT22;67442;44.570;18.610;2023-03-23T14:42:06;22.20;58.80
78184;DHT22;67442;44.570;18.610;2023-03-23T14:44:42;22.20;58.90
78184;DHT22;67442;44.570;18.610;2023-03-23T14:47:23;22.20;58.90
78184;DHT22;67442;44.570;18.610;2023-03-23T14:49:57;22.20;58.90
78184;DHT22;67442;44.570;18.610;2023-03-23T14:52:35;22.20;58.90
78184;DHT22;67442;44.570;18.610;2023-03-23T14:55:21;22.20;58.90
78184;DHT22;67442;44.570;18.610;2023-03-23T14:57:50;22.20;58.90
78184;DHT22;67442;44.570;18.610;2023-03-23T15:00:30;22.20;58.90
78184;DHT22;67442;44.570;18.610;2023-03-23T15:03:14;22.20;58.90
78184;DHT22;67442;44.570;18.610;2023-03-23T15:05:50;22.20;58.90
78184;DHT22;67442;44.570;18.610;2023-03-23T15:08:27;22.20;58.90
78184;DHT22;67442;44.570;18.610;2023-03-23T15:13:45;22.20;58.90
78184;DHT22;67442;44.570;18.610;2023-03-23T15:16:24;22.20;58.80
78184;DHT22;67442;44.570;18.610;2023-03-23T15:21:36;22.20;58.80
78184;DHT22;67442;44.570;18.610;2023-03-23T15:24:39;22.20;58.80
78184;DHT22;67442;44.570;18.610;2023-03-23T15:27:24;22.20;58.80
78184;DHT22;67442;44.570;18.610;2023-03-23T15:32:44;22.20;58.80
78184;DHT22;67442;44.570;18.610;2023-03-23T15:35:23;22.20;58.80
78184;DHT22;67442;44.570;18.610;2023-03-23T15:38:02;22.20;58.80
78184;DHT22;67442;44.570;18.610;2023-03-23T15:40:32;22.20;58.80
78184;DHT22;67442;44.570;18.610;2023-03-23T15:43:27;22.20;58.80
78184;DHT22;67442;44.570;18.610;2023-03-23T15:48:22;22.20;58.80
78184;DHT22;67442;44.570;18.610;2023-03-23T15:50:50;22.20;58.80
78184;DHT22;67442;44.570;18.610;2023-03-23T15:53:37;22.20;58.80
78184;DHT22;67442;44.570;18.610;2023-03-23T15:56:08;22.10;58.80
78184;DHT22;67442;44.570;18.610;2023-03-23T15:58:35;22.20;58.80
78184;DHT22;67442;44.570;18.610;2023-03-23T16:01:07;22.20;58.90
78184;DHT22;67442;44.570;18.610;2023-03-23T16:03:38;22.20;58.90
78184;DHT22;67442;44.570;18.610;2023-03-23T16:06:08;22.20;58.90
78184;DHT22;67442;44.570;18.610;2023-03-23T16:08:35;22.20;58.90
78184;DHT22;67442;44.570;18.610;2023-03-23T16:11:08;22.20;58.90
78184;DHT22;67442;44.570;18.610;2023-03-23T16:13:36;22.20;58.90
78184;DHT22;67442;44.570;18.610;2023-03-23T16:16:04;22.20;58.90
78184;DHT22;67442;44.570;18.610;2023-03-23T16:18:32;22.20;58.90
78184;DHT22;67442;44.570;18.610;2023-03-23T16:20:59;22.20;58.90
78184;DHT22;67442;44.570;18.610;2023-03-23T16:23:27;22.20;59.00
78184;DHT22;67442;44.570;18.610;2023-03-23T16:25:54;22.20;58.90
78184;DHT22;67442;44.570;18.610;2023-03-23T16:28:25;22.10;58.90
78184;DHT22;67442;44.570;18.610;2023-03-23T16:30:52;22.20;58.90
78184;DHT22;67442;44.570;18.610;2023-03-23T16:33:20;22.20;58.90
78184;DHT22;67442;44.570;18.610;2023-03-23T16:35:47;22.20;58.90
78184;DHT22;67442;44.570;18.610;2023-03-23T16:38:15;22.20;58.90
78184;DHT22;67442;44.570;18.610;2023-03-23T16:40:44;22.20;58.90
78184;DHT22;67442;44.570;18.610;2023-03-23T16:43:11;22.20;58.90
78184;DHT22;67442;44.570;18.610;2023-03-23T16:45:40;22.20;58.90
78184;DHT22;67442;44.570;18.610;2023-03-23T16:48:07;22.20;58.90
78184;DHT22;67442;44.570;18.610;2023-03-23T16:50:34;22.20;58.90
78184;DHT22;67442;44.570;18.610;2023-03-23T16:53:02;22.20;58.90
78184;DHT22;67442;44.570;18.610;2023-03-23T16:55:29;22.20;59.00
78184;DHT22;67442;44.570;18.610;2023-03-23T16:57:56;22.20;59.00
78184;DHT22;67442;44.570;18.610;2023-03-23T17:00:24;22.20;59.00
78184;DHT22;67442;44.570;18.610;2023-03-23T17:02:53;22.20;59.00
78184;DHT22;67442;44.570;18.610;2023-03-23T17:05:24;22.20;59.00
78184;DHT22;67442;44.570;18.610;2023-03-23T17:07:51;22.20;59.00
78184;DHT22;67442;44.570;18.610;2023-03-23T17:10:18;22.20;59.00
78184;DHT22;67442;44.570;18.610;2023-03-23T17:12:45;22.20;59.00
78184;DHT22;67442;44.570;18.610;2023-03-23T17:15:13;22.20;59.00
78184;DHT22;67442;44.570;18.610;2023-03-23T17:17:39;22.20;59.00
78184;DHT22;67442;44.570;18.610;2023-03-23T17:20:08;22.20;59.00
78184;DHT22;67442;44.570;18.610;2023-03-23T17:22:36;22.20;59.00
78184;DHT22;67442;44.570;18.610;2023-03-23T17:25:03;22.20;59.00
78184;DHT22;67442;44.570;18.610;2023-03-23T17:27:32;22.20;59.00